Time;durP1;ratioP1;P1;durP2;ratioP2;P2;SDS_P1;SDS_P2;PMS_P1;PMS_P2;Temp;Humidity;BMP_temperature;BMP_pressure;BME280_temperature;BME280_humidity;BME280_pressure;Samples;Min_cycle;Max_cycle;Signal;HPM_P1;HPM_P2
2023/10/29 00:02:26;;;;;;;7.40;4.30;;;;;;;12.27;64.87;99745.66;105264;1254;59873;-60
2023/10/29 00:04:54;;;;;;;7.00;4.30;;;;;;;12.23;64.83;99748.63;105097;1254;62925;-59
2023/10/29 00:07:22;;;;;;;6.40;4.00;;;;;;;12.24;64.82;99748.73;105128;1255;61402;-58
2023/10/29 00:09:49;;;;;;;6.90;3.40;;;;;;;12.27;64.79;99751.64;105250;1255;63688;-60
2023/10/29 00:12:17;;;;;;;7.00;4.00;;;;;;;12.29;64.78;99755.52;106024;1254;59636;-57
2023/10/29 00:14:45;;;;;;;7.20;4.30;;;;;;;12.29;64.89;99757.02;105316;1255;59717;-58
2023/10/29 00:17:13;;;;;;;8.50;4.50;;;;;;;12.29;65.00;99753.56;105296;1254;62851;-59
2023/10/29 00:19:40;;;;;;;7.00;4.40;;;;;;;12.27;64.97;99753.20;105513;1254;61411;-60
2023/10/29 00:22:08;;;;;;;7.20;4.50;;;;;;;12.24;65.13;99755.23;105224;1260;62600;-58
2023/10/29 00:24:35;;;;;;;6.50;4.20;;;;;;;12.23;65.16;99761.98;105668;1254;59688;-58
2023/10/29 00:27:03;;;;;;;7.00;4.00;;;;;;;12.27;65.10;99766.77;105278;1256;59720;-60
2023/10/29 00:29:31;;;;;;;6.30;3.50;;;;;;;12.31;64.95;99766.15;105782;1254;62849;-59
2023/10/29 00:31:59;;;;;;;6.80;4.20;;;;;;;12.35;64.97;99770.34;106401;1254;60393;-67
2023/10/29 00:34:26;;;;;;;7.40;4.10;;;;;;;12.36;64.97;99771.12;105280;1260;63850;-59
2023/10/29 00:36:54;;;;;;;8.70;4.50;;;;;;;12.37;64.95;99777.21;105240;1254;59659;-58
2023/10/29 00:39:23;;;;;;;9.20;4.50;;;;;;;12.37;65.07;99782.64;105331;1255;59631;-59
2023/10/29 00:41:51;;;;;;;8.20;4.40;;;;;;;12.38;64.94;99786.08;105173;1254;62912;-57
2023/10/29 00:44:18;;;;;;;7.50;4.40;;;;;;;12.38;64.90;99790.48;105198;1260;61534;-57
2023/10/29 00:46:46;;;;;;;7.50;4.00;;;;;;;12.41;64.84;99790.13;105243;1257;63747;-59
2023/10/29 00:49:13;;;;;;;6.80;3.80;;;;;;;12.45;64.66;99785.85;105213;1254;59743;-59
2023/10/29 00:51:41;;;;;;;6.90;4.00;;;;;;;12.49;64.69;99784.84;105310;1254;60206;-57
2023/10/29 00:54:09;;;;;;;6.40;3.70;;;;;;;12.49;64.53;99787.27;105203;1257;64291;-57
2023/10/29 00:56:36;;;;;;;6.60;3.40;;;;;;;12.48;64.64;99789.38;105255;1254;61356;-57
2023/10/29 00:59:06;;;;;;;8.00;4.50;;;;;;;12.47;64.76;99793.85;105492;1254;64263;-57
2023/10/29 01:01:33;;;;;;;6.00;3.90;;;;;;;12.46;64.82;99793.25;105635;1259;59617;-58
2023/10/29 01:04:01;;;;;;;5.80;3.50;;;;;;;12.42;64.83;99790.71;105186;1254;59784;-58
2023/10/29 01:06:29;;;;;;;5.60;3.10;;;;;;;12.44;64.72;99789.14;105274;1254;63017;-58
2023/10/29 01:08:57;;;;;;;6.30;3.50;;;;;;;12.49;64.70;99790.08;105776;1259;61294;-58
2023/10/29 01:11:25;;;;;;;6.60;3.40;;;;;;;12.55;64.61;99793.95;105147;1254;63711;-58
2023/10/29 01:13:52;;;;;;;7.50;4.20;;;;;;;12.56;64.69;99796.79;105908;1254;59728;-59
2023/10/29 01:16:20;;;;;;;5.50;3.40;;;;;;;12.55;64.79;99799.35;105263;1254;59654;-58
2023/10/29 01:18:48;;;;;;;6.80;3.90;;;;;;;12.55;64.81;99799.38;105925;1256;64135;-58
2023/10/29 01:21:16;;;;;;;6.60;3.60;;;;;;;12.53;64.84;99802.20;105027;1254;61386;-58
2023/10/29 01:23:43;;;;;;;5.50;3.20;;;;;;;12.51;64.81;99808.59;105050;1257;63733;-58
2023/10/29 01:26:11;;;;;;;9.60;3.20;;;;;;;12.54;64.94;99808.27;105180;1255;59755;-59
2023/10/29 01:28:40;;;;;;;6.90;3.10;;;;;;;12.59;64.74;99807.90;105210;1254;59837;-58
2023/10/29 01:31:07;;;;;;;6.00;3.20;;;;;;;12.62;64.72;99808.71;105562;1254;64083;-56
2023/10/29 01:33:35;;;;;;;5.20;3.40;;;;;;;12.63;64.72;99809.16;105238;1254;61275;-58
2023/10/29 01:36:03;;;;;;;6.40;4.00;;;;;;;12.62;64.75;99807.13;105625;1254;63684;-59
2023/10/29 01:38:32;;;;;;;6.80;4.20;;;;;;;12.60;64.79;99806.61;106556;1254;59765;-58
2023/10/29 01:41:00;;;;;;;6.30;3.70;;;;;;;12.55;64.67;99808.87;105714;1259;59906;-58
2023/10/29 01:43:27;;;;;;;6.30;4.00;;;;;;;12.50;64.73;99808.52;106470;1254;62829;-61
2023/10/29 01:45:55;;;;;;;6.80;3.50;;;;;;;12.49;64.69;99811.16;105258;1254;61822;-60
2023/10/29 01:48:24;;;;;;;5.60;3.50;;;;;;;12.51;64.65;99812.78;105242;1254;63714;-60
2023/10/29 01:50:52;;;;;;;6.70;3.80;;;;;;;12.51;64.79;99813.64;105252;1254;59685;-58
2023/10/29 01:53:19;;;;;;;8.00;4.40;;;;;;;12.50;64.88;99816.63;105086;1254;59669;-58
2023/10/29 01:55:47;;;;;;;6.80;4.10;;;;;;;12.45;64.96;99818.44;105111;1254;65225;-59
2023/10/29 01:58:14;;;;;;;7.10;4.60;;;;;;;12.42;65.13;99827.15;105277;1254;61342;-58
2023/10/29 02:00:42;;;;;;;7.80;4.30;;;;;;;12.40;65.30;99827.23;105124;1257;64303;-59
2023/10/29 02:03:09;;;;;;;8.10;4.40;;;;;;;12.37;65.37;99830.98;105298;1254;59765;-58
2023/10/29 02:05:38;;;;;;;6.50;4.00;;;;;;;12.38;65.28;99831.77;105096;1254;60127;-59
2023/10/29 02:08:06;;;;;;;5.70;3.60;;;;;;;12.42;65.26;99833.65;105196;1254;62945;-55
2023/10/29 02:10:33;;;;;;;6.50;3.60;;;;;;;12.45;65.25;99842.14;105128;1260;60118;-57
2023/10/29 02:13:01;;;;;;;10.30;4.30;;;;;;;12.46;65.43;99848.46;105621;1254;64231;-64
2023/10/29 02:15:30;;;;;;;7.60;4.10;;;;;;;12.44;65.56;99856.69;105170;1254;59672;-57
2023/10/29 02:17:57;;;;;;;6.60;3.60;;;;;;;12.42;65.55;99862.90;105856;1260;59661;-56
2023/10/29 02:20:25;;;;;;;6.90;4.20;;;;;;;12.40;65.52;99868.35;105249;1254;64157;-57
2023/10/29 02:22:52;;;;;;;7.30;3.80;;;;;;;12.37;65.60;99875.01;105908;1257;60251;-58
2023/10/29 02:25:20;;;;;;;7.30;3.80;;;;;;;12.38;65.56;99882.77;105188;1260;63804;-56
2023/10/29 02:27:48;;;;;;;6.80;4.00;;;;;;;12.42;65.51;99887.48;105280;1254;59926;-57
2023/10/29 02:30:17;;;;;;;7.60;3.90;;;;;;;12.45;65.50;99889.19;105341;1259;59951;-57
2023/10/29 02:32:45;;;;;;;8.10;4.10;;;;;;;12.45;65.54;99891.77;105269;1260;64183;-56
2023/10/29 02:35:14;;;;;;;6.70;3.70;;;;;;;12.44;65.72;99895.74;105430;1254;61702;-58
2023/10/29 02:37:42;;;;;;;8.50;4.10;;;;;;;12.44;65.67;99903.29;105262;1260;72659;-58
2023/10/29 02:40:12;;;;;;;6.80;3.60;;;;;;;12.43;65.75;99908.89;105223;1258;62091;-56
2023/10/29 02:42:40;;;;;;;9.10;3.90;;;;;;;12.46;65.68;99913.14;105108;1254;60350;-57
2023/10/29 02:45:08;;;;;;;7.80;3.50;;;;;;;12.52;65.62;99919.29;105176;1254;64038;-58
2023/10/29 02:47:35;;;;;;;6.20;3.50;;;;;;;12.58;65.47;99929.79;105159;1259;60242;-57
2023/10/29 02:50:04;;;;;;;6.70;4.00;;;;;;;12.61;65.52;99934.10;105133;1257;62704;-58
2023/10/29 02:52:31;;;;;;;7.60;4.10;;;;;;;12.61;65.60;99934.28;105708;1259;59803;-57
2023/10/29 02:54:59;;;;;;;6.70;4.00;;;;;;;12.61;65.62;99936.09;105725;1254;59525;-58
2023/10/29 02:57:29;;;;;;;7.50;3.90;;;;;;;12.61;65.59;99935.31;105308;1255;63012;-58
2023/10/29 02:59:56;;;;;;;7.60;4.40;;;;;;;12.60;65.59;99942.27;105813;1257;62060;-58
2023/10/29 03:02:24;;;;;;;5.90;3.20;;;;;;;12.64;65.41;99944.73;105811;1257;63735;-56
2023/10/29 03:04:53;;;;;;;6.10;3.40;;;;;;;12.67;65.23;99949.58;105242;1257;60521;-58
2023/10/29 03:07:20;;;;;;;6.80;3.80;;;;;;;12.70;65.25;99960.14;105978;1254;60578;-56
2023/10/29 03:09:49;;;;;;;6.80;3.90;;;;;;;12.72;65.27;99970.20;106070;1255;65077;-56
2023/10/29 03:12:16;;;;;;;6.40;3.90;;;;;;;12.70;65.51;99971.63;105331;1254;61357;-56
2023/10/29 03:14:44;;;;;;;7.00;4.00;;;;;;;12.74;65.70;99978.25;105215;1254;62442;-56
2023/10/29 03:17:12;;;;;;;7.50;3.90;;;;;;;12.83;65.61;99981.24;105146;1254;60430;-56
2023/10/29 03:19:40;;;;;;;6.90;3.50;;;;;;;12.89;65.37;99982.09;105388;1257;60370;-57
2023/10/29 03:22:07;;;;;;;7.50;4.10;;;;;;;12.96;65.12;99979.15;105196;1259;64864;-57
2023/10/29 03:24:35;;;;;;;7.30;4.00;;;;;;;13.05;64.73;99984.27;105243;1259;61373;-57
2023/10/29 03:27:03;;;;;;;7.70;3.70;;;;;;;13.08;64.42;99990.27;105217;1257;64272;-56
2023/10/29 03:29:30;;;;;;;6.00;3.30;;;;;;;13.05;64.23;99987.33;105633;1257;60875;-56
2023/10/29 03:31:58;;;;;;;6.40;3.60;;;;;;;12.97;64.27;99987.45;105220;1254;60508;-56
2023/10/29 03:34:26;;;;;;;6.50;3.20;;;;;;;12.95;64.10;99991.20;105867;1254;63663;-56
2023/10/29 03:36:54;;;;;;;6.00;3.60;;;;;;;12.90;63.97;99991.39;105817;1254;61846;-56
2023/10/29 03:39:21;;;;;;;7.30;3.60;;;;;;;12.80;63.91;99990.54;105167;1256;62527;-56
2023/10/29 03:41:49;;;;;;;5.10;2.80;;;;;;;12.74;63.82;99984.25;105139;1254;60529;-55
2023/10/29 03:44:16;;;;;;;7.00;3.40;;;;;;;12.71;63.82;99986.25;105265;1254;60615;-56
2023/10/29 03:46:50;;;;;;;8.70;3.50;;;;;;;12.72;64.00;99996.59;105429;1254;64950;-56
2023/10/29 03:49:18;;;;;;;6.00;3.20;;;;;;;12.78;63.89;100000.40;105301;1254;61349;-56
2023/10/29 03:51:47;;;;;;;7.80;3.50;;;;;;;12.84;63.68;100001.45;105263;1254;62473;-58
2023/10/29 03:54:14;;;;;;;6.10;3.10;;;;;;;12.86;63.42;99999.86;105416;1254;60546;-57
2023/10/29 03:56:42;;;;;;;6.10;3.20;;;;;;;12.87;63.22;99998.35;105066;1261;61710;-56
2023/10/29 03:59:09;;;;;;;6.30;2.90;;;;;;;12.90;62.98;99989.95;105487;1254;63744;-57
2023/10/29 04:01:37;;;;;;;6.10;3.40;;;;;;;12.93;62.77;99988.40;105176;1254;61474;-57
2023/10/29 04:04:05;;;;;;;5.60;2.90;;;;;;;12.92;62.62;99988.19;105309;1255;63719;-57
2023/10/29 04:06:33;;;;;;;7.70;3.70;;;;;;;12.87;62.42;99985.10;105638;1259;60406;-56
2023/10/29 04:09:01;;;;;;;6.70;3.40;;;;;;;12.79;62.35;99977.60;105708;1254;60510;-57
2023/10/29 04:11:29;;;;;;;7.00;3.20;;;;;;;12.68;61.96;99975.49;105129;1254;65003;-56
2023/10/29 04:13:57;;;;;;;5.30;2.90;;;;;;;12.56;61.90;99982.08;105118;1261;60686;-56
2023/10/29 04:16:24;;;;;;;6.90;2.70;;;;;;;12.51;61.71;99981.20;105760;1254;63762;-56
2023/10/29 04:18:52;;;;;;;6.30;3.40;;;;;;;12.49;61.48;99972.00;105218;1254;60546;-55
2023/10/29 04:21:19;;;;;;;7.70;3.10;;;;;;;12.44;61.32;99964.38;105244;1254;60595;-55
2023/10/29 04:23:47;;;;;;;6.10;3.10;;;;;;;12.36;61.33;99969.41;105371;1255;64881;-55
2023/10/29 04:26:15;;;;;;;5.20;2.10;;;;;;;12.27;61.20;99976.85;105272;1254;61291;-55
2023/10/29 04:28:42;;;;;;;5.80;3.10;;;;;;;12.19;61.31;99978.16;105100;1260;63965;-54
2023/10/29 04:31:10;;;;;;;6.90;3.30;;;;;;;12.10;61.32;99976.70;105052;1260;60594;-54
2023/10/29 04:33:38;;;;;;;4.90;2.20;;;;;;;12.02;61.57;99979.20;105132;1254;60393;-55
2023/10/29 04:36:06;;;;;;;5.80;2.60;;;;;;;12.02;61.59;99986.94;105580;1259;65967;-57
2023/10/29 04:38:35;;;;;;;5.20;3.00;;;;;;;12.05;61.51;99986.60;105647;1254;61342;-50
2023/10/29 04:41:03;;;;;;;5.40;2.70;;;;;;;12.06;61.73;99981.56;105557;1258;64175;-49
2023/10/29 04:43:31;;;;;;;6.70;3.30;;;;;;;12.07;61.99;99986.85;105473;1256;60588;-56
2023/10/29 04:45:59;;;;;;;6.20;3.20;;;;;;;12.08;62.14;99992.73;105676;1254;60546;-56
2023/10/29 04:48:26;;;;;;;7.40;3.30;;;;;;;12.08;62.29;100006.23;105126;1254;65067;-56
2023/10/29 04:50:55;;;;;;;6.30;3.30;;;;;;;12.07;62.18;100012.13;105873;1254;61476;-56
2023/10/29 04:53:23;;;;;;;7.10;3.30;;;;;;;12.04;62.20;100015.73;105241;1254;62532;-55
2023/10/29 04:55:51;;;;;;;7.40;2.90;;;;;;;12.06;62.17;100022.05;105192;1254;60430;-55
2023/10/29 04:58:18;;;;;;;4.30;1.10;;;;;;;12.11;61.99;100031.98;105171;1260;60780;-54
2023/10/29 05:00:46;;;;;;;6.30;3.20;;;;;;;12.13;61.99;100035.15;105226;1254;64938;-57
2023/10/29 05:03:13;;;;;;;5.90;3.00;;;;;;;12.13;62.09;100042.88;105196;1256;61333;-61
2023/10/29 05:05:42;;;;;;;6.30;3.30;;;;;;;12.13;62.15;100048.21;105451;1257;62456;-59
2023/10/29 05:08:10;;;;;;;5.50;2.90;;;;;;;12.12;62.36;100059.88;105346;1257;60555;-52
2023/10/29 05:10:38;;;;;;;6.10;3.40;;;;;;;12.12;62.44;100065.17;105080;1254;60549;-55
2023/10/29 05:13:05;;;;;;;6.00;3.30;;;;;;;12.10;62.40;100066.01;105107;1254;65477;-54
2023/10/29 05:15:33;;;;;;;5.30;2.50;;;;;;;12.16;62.61;100065.65;105036;1254;69917;-54
2023/10/29 05:18:00;;;;;;;6.20;2.80;;;;;;;12.25;62.58;100065.17;106290;1257;63724;-54
2023/10/29 05:20:28;;;;;;;5.50;3.00;;;;;;;12.37;62.59;100061.24;104962;1259;60559;-55
2023/10/29 05:22:57;;;;;;;7.00;3.60;;;;;;;12.49;62.39;100065.61;105983;1259;60422;-55
2023/10/29 05:25:25;;;;;;;8.30;3.00;;;;;;;12.60;62.22;100070.40;105773;1254;67249;-55
2023/10/29 05:27:57;;;;;;;5.60;3.00;;;;;;;12.67;61.96;100073.77;105349;1255;61290;-54
2023/10/29 05:30:33;;;;;;;6.50;3.30;;;;;;;12.71;61.78;100079.90;105927;1255;63742;-59
2023/10/29 05:33:02;;;;;;;5.70;3.00;;;;;;;12.73;61.49;100082.52;106429;1254;60476;-60
2023/10/29 05:35:30;;;;;;;7.20;2.60;;;;;;;12.74;61.25;100085.59;105220;1257;59412;-55
2023/10/29 05:37:58;;;;;;;6.80;3.00;;;;;;;12.79;61.14;100094.67;105170;1254;63765;-56
2023/10/29 05:40:25;;;;;;;5.60;2.70;;;;;;;12.84;60.91;100101.05;105123;1255;62219;-57
2023/10/29 05:42:53;;;;;;;6.00;3.10;;;;;;;12.84;60.83;100102.29;105231;1254;63752;-55
2023/10/29 05:45:20;;;;;;;5.50;3.00;;;;;;;12.82;60.80;100106.33;105173;1260;60565;-55
2023/10/29 05:47:48;;;;;;;6.00;2.90;;;;;;;12.81;60.83;100109.28;105269;1254;60389;-60
2023/10/29 05:50:16;;;;;;;6.10;2.90;;;;;;;12.80;60.76;100117.23;105269;1255;65374;-58
2023/10/29 05:52:45;;;;;;;8.00;2.90;;;;;;;12.78;60.72;100126.38;105475;1257;60539;-59
2023/10/29 05:55:13;;;;;;;5.30;2.50;;;;;;;12.76;60.63;100133.14;105461;1253;62536;-58
2023/10/29 05:57:41;;;;;;;5.00;2.70;;;;;;;12.77;60.67;100142.72;105275;1254;60454;-58
2023/10/29 06:00:09;;;;;;;6.50;3.20;;;;;;;12.75;60.63;100153.09;105061;1254;60677;-59
2023/10/29 06:02:39;;;;;;;5.40;2.90;;;;;;;12.71;60.84;100157.49;105353;1251;63632;-53
2023/10/29 06:05:07;;;;;;;5.90;3.00;;;;;;;12.65;61.05;100159.14;105202;1251;61498;-59
2023/10/29 06:07:37;;;;;;;6.30;3.30;;;;;;;12.58;61.18;100160.48;105648;1252;63775;-57
2023/10/29 06:10:05;;;;;;;6.00;2.90;;;;;;;12.52;61.39;100164.21;105371;1252;60555;-59
2023/10/29 06:12:33;;;;;;;6.80;3.20;;;;;;;12.46;61.42;100169.87;105804;1251;60501;-55
2023/10/29 06:15:00;;;;;;;5.30;2.80;;;;;;;12.41;61.50;100172.95;105259;1257;65138;-52
2023/10/29 06:17:29;;;;;;;5.50;2.70;;;;;;;12.45;61.72;100176.74;105337;1256;60449;-52
2023/10/29 06:19:57;;;;;;;6.90;2.90;;;;;;;12.53;61.53;100172.52;105740;1254;64121;-52
2023/10/29 06:22:24;;;;;;;7.50;2.90;;;;;;;12.57;61.58;100175.72;105955;1254;60440;-49
2023/10/29 06:24:52;;;;;;;6.60;3.20;;;;;;;12.61;61.53;100181.66;105947;1256;60357;-60
2023/10/29 06:27:19;;;;;;;5.70;2.90;;;;;;;12.62;61.06;100187.44;105882;1256;65052;-56
2023/10/29 06:29:47;;;;;;;6.50;2.90;;;;;;;12.58;61.00;100196.41;105130;1251;62413;-56
2023/10/29 06:32:15;;;;;;;6.50;3.50;;;;;;;12.55;60.90;100196.83;105138;1254;62559;-60
2023/10/29 06:34:42;;;;;;;6.00;3.00;;;;;;;12.54;60.91;100193.36;105339;1251;60459;-58
2023/10/29 06:37:10;;;;;;;6.10;3.00;;;;;;;12.54;60.39;100195.55;105332;1257;60354;-59
2023/10/29 06:39:38;;;;;;;6.10;2.90;;;;;;;12.59;60.18;100205.92;105720;1257;65386;-60
2023/10/29 06:42:06;;;;;;;7.10;2.90;;;;;;;12.69;59.78;100204.15;106471;1256;60450;-61
2023/10/29 06:44:33;;;;;;;5.10;3.00;;;;;;;12.75;59.50;100203.23;105408;1256;62487;-57
2023/10/29 06:47:01;;;;;;;7.10;3.10;;;;;;;12.77;59.02;100205.95;105470;1257;60325;-56
2023/10/29 06:49:28;;;;;;;7.80;3.10;;;;;;;12.70;58.80;100207.27;105463;1251;60629;-58
2023/10/29 06:51:56;;;;;;;7.70;2.90;;;;;;;12.64;59.10;100211.80;105466;1256;64870;-57
2023/10/29 06:54:24;;;;;;;7.00;3.50;;;;;;;12.60;59.16;100224.53;105963;1254;61428;-58
2023/10/29 06:56:52;;;;;;;6.60;3.30;;;;;;;12.54;59.41;100225.83;105485;1254;63759;-50
2023/10/29 06:59:19;;;;;;;7.90;4.10;;;;;;;12.52;59.64;100230.75;105441;1256;60572;-56
2023/10/29 07:01:47;;;;;;;8.00;3.30;;;;;;;12.55;59.42;100236.95;105845;1251;60319;-55
2023/10/29 07:04:19;;;;;;;8.30;3.60;;;;;;;12.56;59.33;100241.45;105709;1253;63909;-55
2023/10/29 07:06:47;;;;;;;7.40;3.80;;;;;;;12.56;59.41;100241.58;105579;1254;61439;-56
2023/10/29 07:09:15;;;;;;;7.00;3.60;;;;;;;12.57;59.45;100242.58;106447;1256;63675;-55
2023/10/29 07:11:43;;;;;;;7.40;3.50;;;;;;;12.59;59.59;100239.41;105606;1251;60648;-53
2023/10/29 07:14:11;;;;;;;6.80;3.40;;;;;;;12.64;59.61;100236.27;105458;1257;60364;-55
2023/10/29 07:16:43;;;;;;;6.20;3.40;;;;;;;12.69;59.55;100239.89;105606;1257;65432;-54
2023/10/29 07:19:13;;;;;;;6.80;4.20;;;;;;;12.73;59.53;100237.55;105528;1254;60529;-54
2023/10/29 07:21:41;;;;;;;8.60;3.50;;;;;;;12.79;59.21;100236.70;105422;1254;63809;-57
2023/10/29 07:24:08;;;;;;;6.30;3.50;;;;;;;12.88;59.06;100231.70;105598;1254;60558;-54
2023/10/29 07:26:36;;;;;;;9.10;3.90;;;;;;;13.00;58.82;100233.39;105984;1257;60520;-57
2023/10/29 07:29:05;;;;;;;7.40;3.60;;;;;;;13.09;58.81;100238.02;105647;1257;67126;-58
2023/10/29 07:31:34;;;;;;;8.60;3.70;;;;;;;13.15;58.56;100239.17;106278;1254;60526;-56
2023/10/29 07:34:02;;;;;;;8.40;4.50;;;;;;;13.19;58.54;100238.80;105324;1256;62485;-59
2023/10/29 07:36:31;;;;;;;8.50;3.90;;;;;;;13.24;58.42;100233.28;107533;1254;60436;-57
2023/10/29 07:39:01;;;;;;;8.10;4.10;;;;;;;13.32;58.54;100228.83;107151;1251;60445;-58
2023/10/29 07:41:31;;;;;;;6.60;3.60;;;;;;;13.43;58.50;100234.70;106819;1256;66869;-59
2023/10/29 07:44:00;;;;;;;10.90;4.30;;;;;;;13.53;58.20;100243.23;106032;1251;63598;-59
2023/10/29 07:46:27;;;;;;;8.00;4.30;;;;;;;13.60;58.39;100237.69;105108;1251;63710;-57
2023/10/29 07:48:55;;;;;;;7.00;4.30;;;;;;;13.70;58.50;100238.11;105196;1254;60726;-57
2023/10/29 07:51:23;;;;;;;8.30;4.40;;;;;;;13.79;58.24;100235.31;105024;1253;60434;-56
2023/10/29 07:53:51;;;;;;;8.80;4.60;;;;;;;13.86;58.42;100237.08;105186;1257;64940;-59
2023/10/29 07:56:20;;;;;;;8.30;4.30;;;;;;;13.93;58.34;100239.05;105474;1256;61630;-60
2023/10/29 07:58:48;;;;;;;12.70;4.90;;;;;;;13.98;58.40;100240.05;105471;1253;63778;-60
2023/10/29 08:01:16;;;;;;;9.30;4.70;;;;;;;14.03;58.20;100238.32;105396;1252;60546;-60
2023/10/29 08:03:46;;;;;;;8.70;4.80;;;;;;;14.10;57.79;100238.02;106357;1252;60548;-56
2023/10/29 08:06:17;;;;;;;8.10;4.00;;;;;;;14.14;57.69;100239.02;108336;1256;67019;-60
2023/10/29 08:08:44;;;;;;;8.20;4.30;;;;;;;14.13;57.45;100237.11;105146;1257;61394;-59
2023/10/29 08:11:19;;;;;;;6.00;3.30;;;;;;;14.12;57.33;100236.76;106366;1255;63728;-59
2023/10/29 08:13:47;;;;;;;8.30;4.00;;;;;;;14.11;57.17;100240.89;105376;1256;60507;-53
2023/10/29 08:16:14;;;;;;;7.40;4.10;;;;;;;14.14;57.07;100247.46;105347;1251;60752;-57
2023/10/29 08:18:42;;;;;;;7.70;4.50;;;;;;;14.16;57.11;100244.45;106025;1251;63622;-55
2023/10/29 08:21:10;;;;;;;11.20;4.50;;;;;;;14.18;57.32;100242.52;105788;1255;60418;-54
2023/10/29 08:23:37;;;;;;;9.70;5.20;;;;;;;14.20;57.24;100246.35;105329;1254;63678;-55
2023/10/29 08:26:05;;;;;;;9.50;5.20;;;;;;;14.22;57.09;100249.73;106440;1256;60578;-55
2023/10/29 08:28:32;;;;;;;11.00;5.00;;;;;;;14.20;56.92;100253.08;105220;1256;60555;-55
2023/10/29 08:31:01;;;;;;;9.00;4.50;;;;;;;14.15;56.91;100253.02;109084;1251;67413;-59
2023/10/29 08:33:30;;;;;;;7.30;4.60;;;;;;;14.15;57.19;100253.41;105911;1256;60644;-54
2023/10/29 08:35:59;;;;;;;7.50;4.20;;;;;;;14.21;57.52;100260.23;106656;1256;74762;-55
2023/10/29 08:38:27;;;;;;;7.70;4.30;;;;;;;14.33;57.30;100265.37;109260;1253;58492;-53
2023/10/29 08:40:56;;;;;;;7.00;4.10;;;;;;;14.45;57.06;100278.38;109330;1252;58540;-55
2023/10/29 08:43:24;;;;;;;6.00;3.70;;;;;;;14.47;56.68;100284.86;109262;1252;63669;-56
2023/10/29 08:45:52;;;;;;;9.40;4.70;;;;;;;14.43;56.57;100289.98;107737;1251;61422;-54
2023/10/29 08:48:22;;;;;;;8.40;4.60;;;;;;;14.38;56.80;100289.20;105709;1254;74359;-57
2023/10/29 08:50:50;;;;;;;6.60;4.00;;;;;;;14.37;57.08;100283.23;106818;1256;62796;-56
2023/10/29 08:53:19;;;;;;;7.50;4.10;;;;;;;14.38;57.11;100287.68;105340;1256;60356;-57
2023/10/29 08:55:48;;;;;;;6.70;3.90;;;;;;;14.41;57.16;100294.48;109114;1253;65831;-58
2023/10/29 08:58:16;;;;;;;5.90;3.40;;;;;;;14.48;57.02;100298.01;109296;1251;61658;-56
2023/10/29 09:00:45;;;;;;;7.80;3.70;;;;;;;14.60;56.79;100302.77;109250;1253;62429;-58
2023/10/29 09:03:13;;;;;;;8.20;3.80;;;;;;;14.72;56.49;100306.86;108403;1257;58386;-57
2023/10/29 09:05:42;;;;;;;7.20;4.70;;;;;;;14.77;56.53;100311.08;106511;1251;60552;-56
2023/10/29 09:08:11;;;;;;;7.20;4.10;;;;;;;14.77;56.42;100316.78;106456;1254;65827;-57
2023/10/29 09:10:43;;;;;;;8.50;4.30;;;;;;;14.75;56.53;100318.91;105494;1259;72697;-58
2023/10/29 09:13:11;;;;;;;6.30;4.20;;;;;;;14.74;56.50;100322.45;105507;1257;63771;-59
2023/10/29 09:15:39;;;;;;;6.10;4.20;;;;;;;14.70;56.46;100326.38;105804;1253;60571;-54
2023/10/29 09:18:10;;;;;;;7.80;5.00;;;;;;;14.66;56.45;100330.68;105547;1251;60622;-51
2023/10/29 09:20:39;;;;;;;8.00;4.90;;;;;;;14.62;56.51;100331.44;105416;1256;65484;-49
2023/10/29 09:23:06;;;;;;;8.60;4.40;;;;;;;14.59;56.88;100332.45;105305;1259;61461;-53
2023/10/29 09:25:34;;;;;;;8.70;4.10;;;;;;;14.61;57.01;100332.89;105334;1256;62579;-53
2023/10/29 09:28:04;;;;;;;7.90;4.40;;;;;;;14.66;57.07;100330.88;105295;1256;60440;-54
2023/10/29 09:30:32;;;;;;;7.20;4.10;;;;;;;14.70;57.01;100333.30;105982;1255;61537;-53
2023/10/29 09:33:00;;;;;;;8.30;4.00;;;;;;;14.70;57.20;100334.20;105278;1256;64980;-54
2023/10/29 09:35:28;;;;;;;8.30;4.50;;;;;;;14.73;57.37;100334.25;105360;1256;61489;-56
2023/10/29 09:37:55;;;;;;;9.90;4.20;;;;;;;14.75;57.35;100334.54;105383;1254;63701;-56
2023/10/29 09:40:23;;;;;;;9.00;4.40;;;;;;;14.77;57.34;100339.13;105403;1254;60526;-53
2023/10/29 09:42:59;;;;;;;7.90;5.20;;;;;;;14.78;57.18;100340.27;105324;1254;60552;-55
2023/10/29 09:45:27;;;;;;;8.20;4.40;;;;;;;14.77;56.96;100338.30;105977;1251;65052;-54
2023/10/29 09:47:57;;;;;;;7.90;4.60;;;;;;;14.75;56.97;100339.02;105403;1256;61595;-57
2023/10/29 09:50:25;;;;;;;7.90;4.20;;;;;;;14.79;57.00;100343.92;106034;1256;63730;-52
2023/10/29 09:52:54;;;;;;;8.90;4.70;;;;;;;14.86;56.85;100335.98;106143;1257;60558;-51
2023/10/29 09:55:22;;;;;;;9.70;5.00;;;;;;;14.91;56.89;100334.45;106141;1251;60681;-48
2023/10/29 09:57:50;;;;;;;8.30;4.30;;;;;;;14.94;56.96;100339.80;106157;1256;63791;-55
2023/10/29 10:00:18;;;;;;;8.50;4.90;;;;;;;14.94;56.88;100343.80;105463;1256;69135;-52
2023/10/29 10:02:53;;;;;;;10.20;5.20;;;;;;;14.96;56.84;100346.48;105489;1253;63757;-55
2023/10/29 10:05:22;;;;;;;8.10;4.80;;;;;;;14.96;56.62;100349.31;105550;1255;60549;-55
2023/10/29 10:07:52;;;;;;;9.00;5.30;;;;;;;14.93;56.55;100354.87;105539;1251;60559;-53
2023/10/29 10:10:20;;;;;;;7.30;4.50;;;;;;;14.89;56.60;100357.91;105493;1252;63622;-53
2023/10/29 10:12:49;;;;;;;7.10;5.00;;;;;;;14.87;56.73;100350.18;105552;1251;61327;-53
2023/10/29 10:15:20;;;;;;;8.80;5.50;;;;;;;14.87;56.70;100344.13;106218;1256;63768;-53
2023/10/29 10:17:58;;;;;;;7.30;4.60;;;;;;;14.94;56.52;100339.92;106292;1255;60386;-55
2023/10/29 10:20:27;;;;;;;8.70;5.20;;;;;;;15.04;56.42;100340.17;106127;1254;60322;-57
2023/10/29 10:23:01;;;;;;;8.50;5.40;;;;;;;15.10;56.47;100340.51;105130;1252;63704;-54
2023/10/29 10:25:30;;;;;;;8.90;5.20;;;;;;;15.14;56.73;100339.61;106043;1256;61497;-54
2023/10/29 10:27:58;;;;;;;7.00;4.70;;;;;;;15.20;56.79;100339.36;106062;1253;63771;-56
2023/10/29 10:30:39;;;;;;;7.90;5.00;;;;;;;15.25;56.67;100338.67;105981;1251;60483;-54
2023/10/29 10:33:14;;;;;;;10.30;4.60;;;;;;;15.30;56.52;100335.63;105446;1256;60793;-56
2023/10/29 10:35:46;;;;;;;8.90;4.80;;;;;;;15.34;56.35;100338.10;105728;1257;65078;-54
2023/10/29 10:38:15;;;;;;;7.80;4.80;;;;;;;15.37;56.31;100335.84;105512;1256;61258;-54
2023/10/29 10:40:44;;;;;;;7.90;4.30;;;;;;;15.43;56.45;100334.88;105431;1264;63702;-55
2023/10/29 10:43:17;;;;;;;7.70;4.00;;;;;;;15.53;56.39;100334.89;105420;1266;60428;-56
2023/10/29 10:45:49;;;;;;;7.70;4.50;;;;;;;15.66;56.04;100324.27;105421;1251;60552;-56
2023/10/29 10:48:17;;;;;;;8.30;4.70;;;;;;;15.76;55.98;100324.27;106418;1257;65354;-55
2023/10/29 10:50:45;;;;;;;7.90;5.00;;;;;;;15.88;55.71;100325.95;105401;1257;61398;-56
2023/10/29 10:53:16;;;;;;;8.50;4.80;;;;;;;15.99;55.48;100325.77;105495;1254;63687;-55
2023/10/29 10:55:43;;;;;;;7.80;4.70;;;;;;;16.09;55.32;100316.48;105382;1254;60565;-55
2023/10/29 10:58:29;;;;;;;9.00;4.80;;;;;;;16.15;55.34;100310.73;105256;1258;60454;-54
2023/10/29 11:00:58;;;;;;;9.80;5.10;;;;;;;16.23;55.50;100322.47;106869;1251;64965;-55
2023/10/29 11:03:33;;;;;;;8.10;4.50;;;;;;;16.30;55.09;100322.42;106295;1256;61525;-54
2023/10/29 11:06:02;;;;;;;9.70;4.70;;;;;;;16.32;54.54;100327.35;105812;1256;64134;-54
2023/10/29 11:08:30;;;;;;;8.10;5.20;;;;;;;16.28;54.32;100335.58;103487;1252;3477188;-54
2023/10/29 11:24:22;;;;;;;8.00;4.50;;;;;;;16.22;54.52;100354.71;103141;1283;603553;-54
2023/10/29 11:26:50;;;;;;;8.70;4.90;;;;;;;16.58;53.59;100358.61;103011;1265;3145105;-55
2023/10/29 11:29:43;;;;;;;8.00;4.80;;;;;;;16.52;53.58;100356.09;104457;1264;59292;-53
2023/10/29 11:32:26;;;;;;;10.70;5.50;;;;;;;16.44;53.79;100355.99;104704;1264;62181;-54
2023/10/29 11:35:16;;;;;;;7.60;5.00;;;;;;;16.39;53.99;100359.07;104448;1269;60194;-53
2023/10/29 11:37:44;;;;;;;8.10;4.40;;;;;;;16.36;54.11;100358.75;104544;1267;64348;-54
2023/10/29 11:40:24;;;;;;;8.30;5.00;;;;;;;16.42;54.31;100355.89;104474;1267;59359;-54